Time;durP1;ratioP1;P1;durP2;ratioP2;P2;SDS_P1;SDS_P2;PMS_P1;PMS_P2;Temp;Humidity;BMP_temperature;BMP_pressure;BME280_temperature;BME280_humidity;BME280_pressure;Samples;Min_cycle;Max_cycle;Signal;HPM_P1;HPM_P2
2023/02/16 00:00:18;;;;;;;;;;;;;;;2.61;53.05;93756.34;2058258;69;20148;-80
2023/02/16 00:02:44;;;;;;;;;;;;;;;2.67;53.62;93751.44;2058813;69;20114;-76
2023/02/16 00:05:30;;;;;;;;;;;;;;;2.51;53.85;93753.22;2060110;69;20493;-79
2023/02/16 00:07:57;;;;;;;;;;;;;;;2.46;53.68;93753.31;2060209;69;20050;-78
2023/02/16 00:10:24;;;;;;;;;;;;;;;2.51;53.87;93756.00;2060577;69;20509;-78
2023/02/16 00:15:34;;;;;;;;;;;;;;;2.33;54.01;93769.97;2059269;69;20139;-79
2023/02/16 00:18:01;;;;;;;;;;;;;;;2.37;54.00;93770.41;2058169;69;20424;-76
2023/02/16 00:20:29;;;;;;;;;;;;;;;2.23;54.95;93761.31;2055499;69;20121;-80
2023/02/16 00:22:54;;;;;;;;;;;;;;;2.11;54.01;93763.53;2057170;69;20584;-80
2023/02/16 00:25:20;;;;;;;;;;;;;;;2.25;55.23;93764.31;2058669;69;20107;-72
2023/02/16 00:27:45;;;;;;;;;;;;;;;2.12;54.71;93759.47;2058551;69;20089;-75
2023/02/16 00:30:15;;;;;;;;;;;;;;;2.27;54.38;93756.19;2058075;69;20116;-77
2023/02/16 00:32:40;;;;;;;;;;;;;;;2.31;53.92;93755.88;2057978;69;20145;-75
2023/02/16 00:35:24;;;;;;;;;;;;;;;2.21;54.57;93753.50;2058428;69;20142;-80
2023/02/16 00:37:49;;;;;;;;;;;;;;;2.15;55.08;93754.88;2058219;69;20056;-80
2023/02/16 00:40:15;;;;;;;;;;;;;;;2.13;53.97;93752.63;2058873;69;20062;-80
2023/02/16 00:42:46;;;;;;;;;;;;;;;2.02;54.35;93752.81;2058383;69;20046;-80
2023/02/16 00:45:19;;;;;;;;;;;;;;;2.12;54.28;93748.34;2058812;69;20049;-80
2023/02/16 00:47:46;;;;;;;;;;;;;;;2.03;54.77;93743.94;2058463;69;20054;-79
2023/02/16 00:50:21;;;;;;;;;;;;;;;2.07;54.68;93745.69;2054922;70;20054;-80
2023/02/16 00:52:47;;;;;;;;;;;;;;;2.08;54.67;93744.38;2056193;69;20141;-80
2023/02/16 00:55:14;;;;;;;;;;;;;;;2.10;54.88;93756.47;2058416;69;20137;-80
2023/02/16 00:57:41;;;;;;;;;;;;;;;1.94;54.23;93751.94;2058027;69;20056;-76
2023/02/16 01:00:28;;;;;;;;;;;;;;;1.83;54.60;93755.63;2057873;69;20054;-79
2023/02/16 01:02:56;;;;;;;;;;;;;;;1.82;55.85;93753.38;2057607;69;20080;-77
2023/02/16 01:05:21;;;;;;;;;;;;;;;1.86;55.26;93754.56;2058406;69;20062;-76
2023/02/16 01:13:18;;;;;;;;;;;;;;;1.70;55.26;93744.50;2057659;69;20050;-79
2023/02/16 01:15:44;;;;;;;;;;;;;;;1.73;55.80;93735.84;2058008;69;20507;-79
2023/02/16 01:18:15;;;;;;;;;;;;;;;1.69;55.93;93742.97;2057934;69;20060;-79
2023/02/16 01:20:42;;;;;;;;;;;;;;;1.62;55.93;93733.25;2058200;69;20093;-76
2023/02/16 01:23:09;;;;;;;;;;;;;;;1.74;55.93;93729.03;2057982;69;20065;-80
2023/02/16 01:25:36;;;;;;;;;;;;;;;1.80;54.91;93730.97;2058584;69;20857;-79
2023/02/16 01:28:16;;;;;;;;;;;;;;;1.83;54.89;93725.06;2057566;69;20056;-80
2023/02/16 01:31:01;;;;;;;;;;;;;;;1.82;55.29;93714.50;2056258;69;20117;-77
2023/02/16 01:33:31;;;;;;;;;;;;;;;1.72;56.25;93714.91;2057181;69;20129;-80
2023/02/16 01:35:58;;;;;;;;;;;;;;;1.60;56.13;93710.78;2058711;69;20050;-77
2023/02/16 01:38:28;;;;;;;;;;;;;;;1.57;56.29;93719.44;2057732;69;20090;-79
2023/02/16 01:41:21;;;;;;;;;;;;;;;1.66;55.42;93719.06;2057563;69;20120;-80
2023/02/16 01:44:07;;;;;;;;;;;;;;;1.49;57.26;93711.72;2058085;69;20058;-78
2023/02/16 01:46:38;;;;;;;;;;;;;;;1.66;55.55;93711.47;2056874;69;20478;-73
2023/02/16 01:49:04;;;;;;;;;;;;;;;1.50;55.90;93718.03;2058217;69;20042;-79
2023/02/16 01:51:36;;;;;;;;;;;;;;;1.46;56.37;93709.25;2058431;69;20064;-78
2023/02/16 01:54:28;;;;;;;;;;;;;;;1.48;55.59;93709.47;2057334;69;20057;-71
2023/02/16 01:56:59;;;;;;;;;;;;;;;1.58;56.45;93704.28;2058071;69;20045;-76
2023/02/16 01:59:25;;;;;;;;;;;;;;;1.59;56.55;93697.44;2057865;69;20065;-80
2023/02/16 02:01:58;;;;;;;;;;;;;;;1.44;56.38;93695.16;2057240;69;20065;-71
2023/02/16 02:07:27;;;;;;;;;;;;;;;1.12;58.19;93701.41;2057140;69;20050;-79
2023/02/16 02:10:08;;;;;;;;;;;;;;;1.34;56.77;93694.06;2058101;69;20493;-80
2023/02/16 02:12:45;;;;;;;;;;;;;;;1.39;57.11;93693.22;2058069;69;20065;-79
2023/02/16 02:15:14;;;;;;;;;;;;;;;1.50;56.13;93698.59;2057826;69;20188;-77
2023/02/16 02:17:53;;;;;;;;;;;;;;;1.49;55.76;93681.19;2058606;69;20046;-79
2023/02/16 02:23:30;;;;;;;;;;;;;;;1.62;55.28;93683.28;2056430;69;20097;-79
2023/02/16 02:23:30;;;;;;;;;;;;;;;1.53;55.11;93680.91;2057686;69;20136;-79
2023/02/16 02:26:05;;;;;;;;;;;;;;;1.33;57.99;93678.66;2057713;69;20061;-78
2023/02/16 02:28:40;;;;;;;;;;;;;;;1.28;56.53;93669.16;2057253;69;20516;-73
2023/02/16 02:31:09;;;;;;;;;;;;;;;1.34;56.78;93671.88;2057461;69;20046;-80
2023/02/16 02:33:56;;;;;;;;;;;;;;;1.42;56.19;93662.41;2057340;69;20231;-78
2023/02/16 02:36:39;;;;;;;;;;;;;;;1.19;56.86;93659.22;2057263;69;20046;-75
2023/02/16 02:39:08;;;;;;;;;;;;;;;1.21;56.36;93661.44;2057803;69;20496;-77
2023/02/16 02:44:26;;;;;;;;;;;;;;;1.25;56.83;93667.44;2056693;69;20058;-76
2023/02/16 02:46:52;;;;;;;;;;;;;;;1.26;56.14;93661.38;2057196;69;20050;-75
2023/02/16 02:49:18;;;;;;;;;;;;;;;1.22;56.48;93666.47;2057826;69;20050;-77
2023/02/16 02:51:44;;;;;;;;;;;;;;;1.12;57.62;93667.38;2055036;69;20050;-75
2023/02/16 03:02:47;;;;;;;;;;;;;;;1.14;57.59;93668.34;2056249;69;20062;-73
2023/02/16 03:05:14;;;;;;;;;;;;;;;1.24;56.81;93666.69;2058102;69;20054;-78
2023/02/16 03:07:47;;;;;;;;;;;;;;;1.25;56.51;93668.19;2057107;69;20080;-75
2023/02/16 03:13:03;;;;;;;;;;;;;;;1.00;57.04;93661.22;2057971;69;20124;-76
2023/02/16 03:15:30;;;;;;;;;;;;;;;1.12;57.72;93668.13;2057836;69;20097;-79
2023/02/16 03:31:41;;;;;;;;;;;;;;;0.98;58.14;93663.78;2057806;69;20057;-74
2023/02/16 03:34:06;;;;;;;;;;;;;;;1.08;56.84;93653.81;2057658;69;20403;-77
2023/02/16 03:36:33;;;;;;;;;;;;;;;0.91;58.07;93653.28;2058426;69;20042;-78
2023/02/16 03:38:59;;;;;;;;;;;;;;;0.90;57.96;93654.56;2057604;69;20352;-75
2023/02/16 03:41:25;;;;;;;;;;;;;;;0.88;57.32;93654.38;2057773;69;20457;-77
2023/02/16 03:43:51;;;;;;;;;;;;;;;1.01;56.35;93652.41;2057751;69;20067;-79
2023/02/16 03:46:16;;;;;;;;;;;;;;;0.85;56.86;93655.41;2057932;69;20062;-79
2023/02/16 03:48:41;;;;;;;;;;;;;;;0.84;58.24;93662.97;2057685;69;20054;-78
2023/02/16 03:51:07;;;;;;;;;;;;;;;0.97;57.20;93656.75;2057880;69;20062;-79
2023/02/16 03:53:32;;;;;;;;;;;;;;;0.92;58.48;93658.34;2057264;69;20466;-77
2023/02/16 03:55:58;;;;;;;;;;;;;;;0.92;57.08;93650.00;2056599;69;20054;-79
2023/02/16 03:58:24;;;;;;;;;;;;;;;0.78;57.56;93654.00;2058290;69;20065;-77
2023/02/16 04:00:50;;;;;;;;;;;;;;;0.49;58.33;93652.81;2057956;69;20085;-75
2023/02/16 04:03:15;;;;;;;;;;;;;;;0.67;58.45;93651.34;2057747;69;20077;-76
2023/02/16 04:05:44;;;;;;;;;;;;;;;0.83;57.48;93655.19;2056742;69;20493;-79
2023/02/16 04:08:09;;;;;;;;;;;;;;;0.72;58.10;93654.03;2055639;69;20082;-79
2023/02/16 04:10:35;;;;;;;;;;;;;;;0.83;57.36;93658.72;2057736;69;20062;-78
2023/02/16 04:13:01;;;;;;;;;;;;;;;0.84;57.08;93659.44;2059357;69;20093;-75
2023/02/16 04:15:27;;;;;;;;;;;;;;;0.59;58.38;93656.72;2057739;69;20453;-77
2023/02/16 04:17:53;;;;;;;;;;;;;;;0.33;58.39;93651.03;2057825;69;20050;-79
2023/02/16 04:20:23;;;;;;;;;;;;;;;0.28;58.19;93658.13;2057452;69;20085;-79
2023/02/16 04:22:49;;;;;;;;;;;;;;;0.52;57.96;93660.09;2057642;69;20050;-77
2023/02/16 04:25:15;;;;;;;;;;;;;;;0.53;57.41;93660.84;2057398;69;20058;-78
2023/02/16 04:27:41;;;;;;;;;;;;;;;0.60;57.99;93655.47;2057157;69;20485;-77
2023/02/16 04:30:08;;;;;;;;;;;;;;;0.46;58.13;93660.19;2056474;69;20062;-79
2023/02/16 04:32:34;;;;;;;;;;;;;;;0.54;58.51;93660.31;2058230;69;20081;-73
2023/02/16 04:34:59;;;;;;;;;;;;;;;0.55;58.53;93661.84;2058283;69;20185;-79
2023/02/16 04:37:24;;;;;;;;;;;;;;;0.47;58.89;93658.16;2058007;69;20505;-79
2023/02/16 04:39:50;;;;;;;;;;;;;;;0.65;58.33;93662.22;2057684;69;20088;-77
2023/02/16 04:42:15;;;;;;;;;;;;;;;0.70;57.99;93658.63;2057641;69;20050;-79
2023/02/16 04:44:41;;;;;;;;;;;;;;;0.69;57.98;93657.88;2058398;69;20061;-80
2023/02/16 04:47:06;;;;;;;;;;;;;;;0.70;58.71;93659.38;2058231;69;20049;-79
2023/02/16 04:49:32;;;;;;;;;;;;;;;0.51;58.73;93658.63;2057712;69;20046;-74
2023/02/16 04:51:57;;;;;;;;;;;;;;;0.55;59.59;93652.75;2058520;69;20050;-79
2023/02/16 04:54:23;;;;;;;;;;;;;;;0.55;58.25;93655.53;2058038;69;20137;-79
2023/02/16 04:56:49;;;;;;;;;;;;;;;0.54;58.45;93660.31;2058469;69;20150;-79
2023/02/16 04:59:15;;;;;;;;;;;;;;;0.57;58.39;93656.50;2058740;69;20486;-77
2023/02/16 05:01:41;;;;;;;;;;;;;;;0.66;58.68;93670.00;2057881;69;20126;-78
2023/02/16 05:04:08;;;;;;;;;;;;;;;0.58;58.73;93668.34;2057616;69;20050;-78
2023/02/16 05:06:34;;;;;;;;;;;;;;;0.64;58.14;93666.25;2058471;69;20062;-79
2023/02/16 05:08:59;;;;;;;;;;;;;;;0.71;58.13;93666.41;2058205;69;20529;-80
2023/02/16 05:17:02;;;;;;;;;;;;;;;0.39;59.39;93673.84;2055515;69;20464;-80
2023/02/16 05:19:27;;;;;;;;;;;;;;;0.41;59.72;93674.06;2057748;69;20058;-78
2023/02/16 05:21:52;;;;;;;;;;;;;;;0.71;58.32;93669.19;2058116;69;20062;-77
2023/02/16 05:24:18;;;;;;;;;;;;;;;0.61;57.89;93668.06;2058109;69;20054;-78
2023/02/16 05:26:43;;;;;;;;;;;;;;;0.50;58.79;93662.63;2058799;69;20133;-79
2023/02/16 05:29:09;;;;;;;;;;;;;;;0.72;58.33;93667.91;2058028;69;20093;-79
2023/02/16 05:31:34;;;;;;;;;;;;;;;0.68;57.64;93673.00;2058032;69;20054;-79
2023/02/16 05:33:59;;;;;;;;;;;;;;;0.75;57.79;93680.72;2058447;69;20077;-71
2023/02/16 05:36:25;;;;;;;;;;;;;;;0.67;57.74;93692.91;2058732;69;20073;-79
2023/02/16 05:38:50;;;;;;;;;;;;;;;0.48;58.34;93688.09;2057687;69;20100;-76
2023/02/16 05:41:24;;;;;;;;;;;;;;;0.62;59.05;93699.28;2058344;69;20085;-77
2023/02/16 05:43:58;;;;;;;;;;;;;;;0.54;58.23;93696.34;2058638;69;20066;-79
2023/02/16 05:46:24;;;;;;;;;;;;;;;0.39;58.59;93682.16;2057424;69;20113;-77
2023/02/16 05:48:50;;;;;;;;;;;;;;;0.46;59.34;93682.34;2057654;69;20089;-79
2023/02/16 05:51:16;;;;;;;;;;;;;;;0.47;58.75;93675.53;2057618;69;20209;-79
2023/02/16 05:53:41;;;;;;;;;;;;;;;0.50;59.55;93680.03;2057995;69;21743;-77
2023/02/16 05:56:07;;;;;;;;;;;;;;;0.85;57.94;93674.81;2057984;69;20145;-75
2023/02/16 05:58:33;;;;;;;;;;;;;;;1.18;56.28;93677.09;2058430;69;20053;-73
2023/02/16 06:00:58;;;;;;;;;;;;;;;1.07;56.96;93688.38;2058009;69;20113;-78
2023/02/16 06:03:24;;;;;;;;;;;;;;;0.87;56.97;93697.97;2059853;69;20057;-72
2023/02/16 06:05:57;;;;;;;;;;;;;;;0.70;58.06;93700.19;2058837;69;20066;-79
2023/02/16 06:08:23;;;;;;;;;;;;;;;0.68;58.13;93699.97;2056250;69;20057;-78
2023/02/16 06:10:49;;;;;;;;;;;;;;;0.71;57.22;93704.47;2058101;69;20046;-76
2023/02/16 06:13:14;;;;;;;;;;;;;;;0.55;57.81;93695.09;2057701;69;20072;-75
2023/02/16 06:15:40;;;;;;;;;;;;;;;0.73;57.64;93699.13;2058599;69;20054;-77
2023/02/16 06:18:05;;;;;;;;;;;;;;;0.74;57.92;93698.63;2063298;69;20053;-77
2023/02/16 06:20:31;;;;;;;;;;;;;;;0.63;58.18;93703.56;2060709;69;20071;-79
2023/02/16 06:22:57;;;;;;;;;;;;;;;0.70;57.64;93705.75;2061907;69;20168;-79
2023/02/16 06:25:22;;;;;;;;;;;;;;;0.64;58.95;93711.34;2060092;69;20061;-73
2023/02/16 06:27:49;;;;;;;;;;;;;;;0.74;56.90;93714.50;2061476;69;20096;-79
2023/02/16 06:30:15;;;;;;;;;;;;;;;0.66;58.28;93727.47;2062467;69;20053;-78
2023/02/16 06:32:40;;;;;;;;;;;;;;;0.38;59.05;93722.97;2061989;69;20478;-77
2023/02/16 06:35:09;;;;;;;;;;;;;;;0.26;59.79;93729.88;2061247;69;20105;-78
2023/02/16 06:37:37;;;;;;;;;;;;;;;0.56;58.63;93727.06;2059239;69;20049;-81
2023/02/16 06:40:05;;;;;;;;;;;;;;;0.29;59.23;93722.56;2057200;69;20042;-80
2023/02/16 06:42:30;;;;;;;;;;;;;;;0.45;58.73;93730.69;2058244;69;20050;-76
2023/02/16 06:44:56;;;;;;;;;;;;;;;0.66;59.40;93730.97;2058533;69;20046;-77
2023/02/16 06:47:21;;;;;;;;;;;;;;;0.67;58.82;93723.41;2059279;69;20054;-78
2023/02/16 06:49:47;;;;;;;;;;;;;;;0.82;58.28;93731.28;2060212;69;20046;-79
2023/02/16 06:52:12;;;;;;;;;;;;;;;1.02;57.90;93731.53;2057985;69;20042;-79
2023/02/16 06:54:38;;;;;;;;;;;;;;;0.28;59.91;93732.91;2057938;69;20057;-79
2023/02/16 06:57:03;;;;;;;;;;;;;;;0.60;58.97;93735.09;2058830;69;20054;-76
2023/02/16 06:59:29;;;;;;;;;;;;;;;0.75;58.36;93738.94;2059560;69;20065;-80
2023/02/16 07:01:54;;;;;;;;;;;;;;;0.84;58.73;93735.06;2059177;69;20066;-76
2023/02/16 07:04:20;;;;;;;;;;;;;;;0.92;58.10;93735.97;2059026;69;20256;-75
2023/02/16 07:06:45;;;;;;;;;;;;;;;1.04;57.90;93741.34;2057807;69;20062;-78
2023/02/16 07:09:12;;;;;;;;;;;;;;;1.06;58.00;93741.59;2057776;69;20177;-77
2023/02/16 07:11:38;;;;;;;;;;;;;;;1.10;58.10;93740.03;2056923;69;20065;-78
2023/02/16 07:14:03;;;;;;;;;;;;;;;1.09;57.70;93744.06;2058194;69;20497;-72
2023/02/16 07:16:29;;;;;;;;;;;;;;;1.20;57.72;93738.38;2057959;69;20061;-77
2023/02/16 07:18:54;;;;;;;;;;;;;;;1.30;57.97;93735.97;2057336;69;20042;-78
2023/02/16 07:21:19;;;;;;;;;;;;;;;1.28;58.92;93741.28;2056748;69;20076;-80
2023/02/16 07:23:45;;;;;;;;;;;;;;;1.62;57.64;93740.81;2057326;69;20160;-79
2023/02/16 07:26:10;;;;;;;;;;;;;;;1.39;57.87;93743.91;2058168;69;20137;-80
2023/02/16 07:28:36;;;;;;;;;;;;;;;1.71;56.98;93746.72;2058273;69;20102;-77
2023/02/16 07:31:05;;;;;;;;;;;;;;;1.66;58.13;93744.03;2057696;69;20481;-79
2023/02/16 07:33:31;;;;;;;;;;;;;;;1.95;57.06;93751.41;2058071;69;20054;-79
2023/02/16 07:35:56;;;;;;;;;;;;;;;1.87;57.05;93744.22;2058250;69;20057;-80
2023/02/16 07:38:22;;;;;;;;;;;;;;;1.95;56.64;93742.31;2058218;69;20058;-78
2023/02/16 07:40:47;;;;;;;;;;;;;;;1.96;56.61;93746.59;2058468;69;20050;-76
2023/02/16 07:43:12;;;;;;;;;;;;;;;2.18;57.10;93753.81;2058474;69;20042;-77
2023/02/16 07:45:38;;;;;;;;;;;;;;;2.32;56.04;93751.81;2058515;69;20481;-79
2023/02/16 07:48:03;;;;;;;;;;;;;;;2.33;56.75;93754.03;2058382;69;20046;-79
2023/02/16 07:50:29;;;;;;;;;;;;;;;2.36;57.02;93755.78;2058533;69;20529;-80
2023/02/16 07:52:54;;;;;;;;;;;;;;;2.47;56.71;93755.56;2058446;69;20098;-79
2023/02/16 07:55:19;;;;;;;;;;;;;;;2.42;56.39;93758.44;2058490;69;20070;-79
2023/02/16 07:57:48;;;;;;;;;;;;;;;2.60;56.41;93756.88;2058383;69;20149;-80
2023/02/16 08:00:13;;;;;;;;;;;;;;;2.78;56.48;93758.81;2058630;69;20093;-80
2023/02/16 08:02:39;;;;;;;;;;;;;;;2.95;55.92;93761.25;2058280;69;20434;-81
2023/02/16 08:05:04;;;;;;;;;;;;;;;2.82;55.97;93759.22;2058389;69;20093;-80
2023/02/16 08:07:30;;;;;;;;;;;;;;;2.84;56.35;93753.91;2058515;69;20513;-80
2023/02/16 08:09:55;;;;;;;;;;;;;;;2.96;56.05;93755.16;2057833;69;20076;-79
2023/02/16 08:12:21;;;;;;;;;;;;;;;2.96;55.96;93757.19;2058546;69;20116;-72
2023/02/16 08:14:46;;;;;;;;;;;;;;;3.10;55.17;93764.25;2057948;69;20168;-74
2023/02/16 08:17:12;;;;;;;;;;;;;;;2.99;55.38;93737.41;2058270;69;20054;-79
2023/02/16 08:19:38;;;;;;;;;;;;;;;3.17;55.20;93755.25;2058551;69;20058;-77
2023/02/16 08:22:03;;;;;;;;;;;;;;;3.29;55.51;93748.16;2058224;69;20060;-78
2023/02/16 08:24:29;;;;;;;;;;;;;;;3.07;55.47;93751.44;2058339;69;20053;-79
2023/02/16 08:26:55;;;;;;;;;;;;;;;3.19;55.56;93757.50;2058469;69;20149;-79
2023/02/16 08:29:21;;;;;;;;;;;;;;;3.40;55.68;93747.19;2058361;69;20085;-82
2023/02/16 08:31:47;;;;;;;;;;;;;;;3.64;55.22;93750.97;2058606;69;20090;-78
2023/02/16 08:34:13;;;;;;;;;;;;;;;3.56;55.41;93762.75;2058876;69;20093;-80
2023/02/16 08:36:40;;;;;;;;;;;;;;;3.80;54.14;93764.53;2059052;69;20101;-79
2023/02/16 08:39:13;;;;;;;;;;;;;;;4.12;55.13;93760.72;2059121;69;20054;-80
2023/02/16 08:41:39;;;;;;;;;;;;;;;4.41;55.42;93766.38;2058963;69;20056;-81
2023/02/16 08:44:06;;;;;;;;;;;;;;;4.68;54.59;93766.97;2058860;69;20042;-80
2023/02/16 08:46:32;;;;;;;;;;;;;;;5.07;54.40;93758.28;2058697;69;20134;-81
2023/02/16 08:48:59;;;;;;;;;;;;;;;5.29;53.68;93764.53;2058880;69;20121;-78
2023/02/16 08:51:25;;;;;;;;;;;;;;;5.59;54.11;93758.34;2058376;69;20046;-78
2023/02/16 08:53:51;;;;;;;;;;;;;;;5.83;53.28;93765.50;2058795;69;20080;-81
2023/02/16 08:56:17;;;;;;;;;;;;;;;6.15;53.80;93762.25;2058805;69;20042;-81
2023/02/16 08:58:43;;;;;;;;;;;;;;;6.43;51.41;93769.75;2058748;69;20054;-80
2023/02/16 09:01:09;;;;;;;;;;;;;;;6.74;51.60;93767.72;2058711;69;20434;-81
2023/02/16 09:03:36;;;;;;;;;;;;;;;7.12;51.06;93769.72;2058612;69;20137;-82
2023/02/16 09:06:03;;;;;;;;;;;;;;;7.30;49.10;93770.63;2058765;69;20053;-81
2023/02/16 09:08:28;;;;;;;;;;;;;;;7.26;48.57;93765.38;2058756;69;20425;-81
2023/02/16 09:10:54;;;;;;;;;;;;;;;7.39;47.37;93772.81;2058238;69;20134;-81
2023/02/16 09:13:20;;;;;;;;;;;;;;;8.13;47.47;93763.91;2058780;69;20066;-81
2023/02/16 09:15:46;;;;;;;;;;;;;;;8.12;46.14;93759.63;2058784;69;20054;-83
2023/02/16 09:18:12;;;;;;;;;;;;;;;8.18;43.73;93761.47;2058611;69;20049;-80
2023/02/16 09:20:42;;;;;;;;;;;;;;;8.37;43.91;93759.66;2058663;69;20203;-77
2023/02/16 09:23:09;;;;;;;;;;;;;;;8.70;42.64;93762.44;2058788;69;20427;-74
2023/02/16 09:25:35;;;;;;;;;;;;;;;9.15;41.16;93760.53;2058672;69;20050;-77
2023/02/16 09:28:01;;;;;;;;;;;;;;;9.02;42.07;93770.03;2058600;69;20039;-78
2023/02/16 09:30:27;;;;;;;;;;;;;;;9.41;41.62;93765.53;2058918;69;20060;-80
2023/02/16 09:32:52;;;;;;;;;;;;;;;9.71;38.73;93771.38;2058436;69;20547;-82
2023/02/16 09:35:19;;;;;;;;;;;;;;;10.02;39.20;93758.44;2058838;69;20504;-79
2023/02/16 09:37:44;;;;;;;;;;;;;;;10.14;38.71;93770.66;2058163;69;20058;-78
2023/02/16 09:40:12;;;;;;;;;;;;;;;10.62;38.08;93766.66;2058819;69;20579;-78
2023/02/16 09:42:38;;;;;;;;;;;;;;;10.94;37.32;93759.94;2058508;69;20058;-82
2023/02/16 09:45:04;;;;;;;;;;;;;;;10.19;38.06;93755.59;2058584;69;20045;-79
2023/02/16 09:47:31;;;;;;;;;;;;;;;11.16;37.06;93758.81;2058700;69;20545;-78
2023/02/16 09:49:59;;;;;;;;;;;;;;;11.79;35.40;93757.13;2058945;69;20050;-79
2023/02/16 09:52:48;;;;;;;;;;;;;;;12.13;34.90;93750.41;2058625;69;20046;-78
2023/02/16 09:55:15;;;;;;;;;;;;;;;12.72;34.42;93748.19;2058808;69;20054;-78
2023/02/16 09:57:54;;;;;;;;;;;;;;;11.94;33.75;93751.19;2058546;69;20074;-78
2023/02/16 10:00:50;;;;;;;;;;;;;;;12.70;33.46;93743.13;2058511;69;20052;-78
2023/02/16 10:03:48;;;;;;;;;;;;;;;12.82;32.42;93742.50;2056074;69;20493;-78
2023/02/16 10:06:28;;;;;;;;;;;;;;;12.92;32.46;93737.53;2052551;69;20093;-80
2023/02/16 10:08:56;;;;;;;;;;;;;;;12.77;33.15;93735.81;2058727;69;20090;-79
2023/02/16 10:11:37;;;;;;;;;;;;;;;12.83;31.45;93739.09;2058602;69;20157;-79
2023/02/16 10:14:22;;;;;;;;;;;;;;;13.36;32.03;93719.31;2058681;69;20080;-79
2023/02/16 10:16:55;;;;;;;;;;;;;;;13.56;30.54;93722.72;2058327;69;20465;-78
2023/02/16 10:19:24;;;;;;;;;;;;;;;14.01;29.54;93722.81;2058820;69;20108;-78
2023/02/16 10:21:52;;;;;;;;;;;;;;;14.81;29.48;93720.81;2058668;69;20418;-80
2023/02/16 10:24:18;;;;;;;;;;;;;;;15.68;29.07;93721.72;2058561;69;20491;-80
2023/02/16 10:26:53;;;;;;;;;;;;;;;15.27;28.44;93722.16;2058553;69;20137;-78
2023/02/16 10:29:20;;;;;;;;;;;;;;;15.34;28.17;93711.91;2058134;69;20145;-79
2023/02/16 10:32:05;;;;;;;;;;;;;;;16.05;28.36;93713.22;2058476;69;20176;-79
2023/02/16 10:34:38;;;;;;;;;;;;;;;15.37;27.88;93710.66;2058560;69;20062;-79
2023/02/16 10:37:04;;;;;;;;;;;;;;;16.61;27.20;93703.50;2058616;69;20137;-78
2023/02/16 10:39:30;;;;;;;;;;;;;;;17.95;25.52;93704.06;2058476;69;20166;-78
2023/02/16 10:42:02;;;;;;;;;;;;;;;17.74;26.04;93695.91;2058498;69;20050;-79
2023/02/16 10:44:39;;;;;;;;;;;;;;;18.50;25.08;93692.47;2058525;69;20355;-79
2023/02/16 10:47:06;;;;;;;;;;;;;;;19.25;23.84;93689.50;2058503;69;20136;-76
2023/02/16 10:49:34;;;;;;;;;;;;;;;19.40;23.59;93684.41;2058494;69;20141;-78
2023/02/16 10:52:00;;;;;;;;;;;;;;;18.74;23.31;93680.78;2058509;69;20050;-76
2023/02/16 10:54:30;;;;;;;;;;;;;;;19.40;22.93;93672.97;2057851;69;20054;-76
2023/02/16 10:56:59;;;;;;;;;;;;;;;20.22;21.77;93677.88;2058455;69;20478;-78
2023/02/16 10:59:30;;;;;;;;;;;;;;;20.56;22.00;93667.09;2058431;69;20057;-78
2023/02/16 11:02:00;;;;;;;;;;;;;;;21.23;21.52;93668.16;2058355;69;20053;-79
2023/02/16 11:04:34;;;;;;;;;;;;;;;22.06;20.98;93671.09;2058502;69;20066;-79
2023/02/16 11:07:07;;;;;;;;;;;;;;;23.31;19.96;93658.47;2058509;69;20046;-79
2023/02/16 11:09:33;;;;;;;;;;;;;;;19.96;21.59;93656.78;2057974;69;20065;-78
2023/02/16 11:11:59;;;;;;;;;;;;;;;21.73;20.63;93657.06;2058524;69;20050;-80
2023/02/16 11:14:29;;;;;;;;;;;;;;;22.87;19.59;93645.69;2058466;69;20042;-79
2023/02/16 11:17:06;;;;;;;;;;;;;;;24.85;18.89;93645.88;2058391;69;20050;-79
2023/02/16 11:19:33;;;;;;;;;;;;;;;25.01;18.58;93642.63;2058402;69;20499;-80
2023/02/16 11:21:58;;;;;;;;;;;;;;;24.74;18.58;93638.44;2058292;69;20050;-79
2023/02/16 11:24:28;;;;;;;;;;;;;;;25.75;16.73;93654.28;2057825;69;20145;-79
2023/02/16 11:27:01;;;;;;;;;;;;;;;27.48;16.43;93646.91;2058347;69;20120;-79
2023/02/16 11:29:26;;;;;;;;;;;;;;;28.14;15.31;93645.50;2058402;69;20507;-78
2023/02/16 11:31:52;;;;;;;;;;;;;;;29.31;14.71;93648.59;2058294;69;20494;-76
2023/02/16 11:34:25;;;;;;;;;;;;;;;30.51;13.93;93647.53;2058365;69;20062;-77
2023/02/16 11:36:59;;;;;;;;;;;;;;;31.03;13.85;93643.94;2058541;69;20485;-79
2023/02/16 11:39:29;;;;;;;;;;;;;;;31.98;12.61;93645.13;2058424;69;20053;-77
2023/02/16 11:41:56;;;;;;;;;;;;;;;29.81;14.07;93637.97;2058430;69;20057;-79
2023/02/16 11:44:31;;;;;;;;;;;;;;;31.28;13.81;93632.28;2058433;69;20490;-79
2023/02/16 11:46:57;;;;;;;;;;;;;;;29.04;13.14;93630.31;2058344;69;20046;-77
2023/02/16 11:49:35;;;;;;;;;;;;;;;26.10;15.41;93617.41;2058413;69;20054;-78
2023/02/16 11:52:17;;;;;;;;;;;;;;;27.37;15.19;93617.16;2057867;69;20070;-76
2023/02/16 11:54:53;;;;;;;;;;;;;;;28.34;14.79;93610.94;2058389;69;20054;-77
2023/02/16 11:57:27;;;;;;;;;;;;;;;30.34;13.75;93609.06;2058401;69;20086;-76
2023/02/16 11:59:53;;;;;;;;;;;;;;;30.46;14.31;93617.03;2058444;69;20128;-78
2023/02/16 12:02:51;;;;;;;;;;;;;;;30.47;13.77;93607.63;2058229;69;20050;-80
2023/02/16 12:05:23;;;;;;;;;;;;;;;28.50;14.26;93590.84;2052100;69;20143;-77
2023/02/16 12:07:48;;;;;;;;;;;;;;;27.88;13.72;93591.72;2058473;69;20061;-79
2023/02/16 12:10:14;;;;;;;;;;;;;;;30.08;12.96;93586.50;2058374;69;20138;-79
2023/02/16 12:12:59;;;;;;;;;;;;;;;33.09;12.77;93592.59;2058397;69;20066;-77
2023/02/16 12:15:35;;;;;;;;;;;;;;;32.46;11.81;93590.94;2057811;69;20537;-79
2023/02/16 12:18:00;;;;;;;;;;;;;;;31.94;11.79;93595.66;2058269;69;20078;-79
2023/02/16 12:20:32;;;;;;;;;;;;;;;29.72;12.52;93590.78;2058228;69;20066;-77
2023/02/16 12:23:17;;;;;;;;;;;;;;;29.05;13.54;93570.94;2058288;69;20098;-77
2023/02/16 12:26:06;;;;;;;;;;;;;;;33.76;11.90;93579.44;2055169;69;20057;-79
2023/02/16 12:28:49;;;;;;;;;;;;;;;31.51;13.04;93571.81;2058164;69;20050;-78
2023/02/16 12:31:24;;;;;;;;;;;;;;;33.39;12.48;93577.66;2058200;69;20043;-78
2023/02/16 12:34:13;;;;;;;;;;;;;;;30.81;12.62;93571.28;2058256;69;20117;-77
2023/02/16 12:36:44;;;;;;;;;;;;;;;32.25;12.49;93557.56;2058450;69;20054;-77
2023/02/16 12:39:30;;;;;;;;;;;;;;;34.22;11.00;93562.75;2058379;69;20483;-78
2023/02/16 12:42:14;;;;;;;;;;;;;;;31.48;12.11;93550.03;2052607;69;20057;-77
2023/02/16 12:45:01;;;;;;;;;;;;;;;32.92;11.49;93539.53;2058275;69;20046;-78
2023/02/16 12:47:33;;;;;;;;;;;;;;;32.17;11.72;93531.44;2058274;69;20053;-78
2023/02/16 12:50:02;;;;;;;;;;;;;;;30.56;11.72;93533.53;2058197;69;20058;-77
2023/02/16 12:52:34;;;;;;;;;;;;;;;32.96;11.41;93524.94;2058056;69;20046;-79
2023/02/16 12:55:16;;;;;;;;;;;;;;;35.36;10.98;93535.19;2058209;69;20081;-76
2023/02/16 12:57:45;;;;;;;;;;;;;;;33.20;11.35;93526.13;2058217;69;20046;-79
2023/02/16 13:00:14;;;;;;;;;;;;;;;35.32;10.16;93523.56;2058167;69;20074;-78
2023/02/16 13:02:51;;;;;;;;;;;;;;;35.99;9.64;93524.41;2058074;69;20155;-77
2023/02/16 13:05:20;;;;;;;;;;;;;;;36.21;9.84;93529.03;2058035;69;20051;-79
2023/02/16 13:07:46;;;;;;;;;;;;;;;36.97;9.02;93530.81;2058073;69;20061;-79
2023/02/16 13:10:17;;;;;;;;;;;;;;;35.92;9.52;93520.13;2058078;69;20145;-78
2023/02/16 13:12:59;;;;;;;;;;;;;;;36.64;9.45;93519.19;2058073;69;20053;-79
2023/02/16 13:15:31;;;;;;;;;;;;;;;36.34;8.95;93511.88;2058226;69;20143;-79
2023/02/16 13:18:00;;;;;;;;;;;;;;;36.32;8.93;93509.69;2058510;69;20054;-78
2023/02/16 13:20:25;;;;;;;;;;;;;;;36.32;10.52;93503.09;2058601;69;20133;-77
2023/02/16 13:22:53;;;;;;;;;;;;;;;37.73;8.97;93496.44;2058512;69;20082;-76
2023/02/16 13:25:25;;;;;;;;;;;;;;;37.46;8.89;93493.56;2058873;69;20581;-78
2023/02/16 13:27:57;;;;;;;;;;;;;;;36.78;8.93;93491.72;2058641;69;20105;-78
2023/02/16 13:30:37;;;;;;;;;;;;;;;36.98;9.30;93488.28;2058700;69;20061;-78
2023/02/16 13:33:13;;;;;;;;;;;;;;;34.79;9.40;93479.97;2058421;69;20121;-77
2023/02/16 13:35:42;;;;;;;;;;;;;;;36.48;9.04;93488.09;2058731;69;20082;-78
2023/02/16 13:38:17;;;;;;;;;;;;;;;33.55;10.52;93485.56;2058727;69;20132;-77
2023/02/16 13:40:48;;;;;;;;;;;;;;;33.03;12.01;93481.81;2058775;69;20054;-78
2023/02/16 13:43:19;;;;;;;;;;;;;;;32.26;12.29;93471.66;2058654;69;20046;-77
2023/02/16 13:45:46;;;;;;;;;;;;;;;30.87;12.23;93484.06;2058684;69;20061;-77
2023/02/16 13:48:13;;;;;;;;;;;;;;;31.46;13.08;93474.38;2058547;69;20042;-79
2023/02/16 13:50:42;;;;;;;;;;;;;;;27.95;13.96;93465.19;2058630;69;20081;-78